PIA185 OPSD-OPIS
Flight info
| Callsign | PIA185 |
|---|---|
| Flight time | N/A |
| Altitude | 34000 |
| Route | BIREB DCT DELDA DCT KAPMI DCT BOBAM |
| Aircraft | A320/M-SDE3FGHIRWY/LB1 |
Departure
| Time | N/A |
|---|---|
| Airport | Skardu International Airport (OPSD) |
Arrival
| Time | 2026-05-03 20:46 |
|---|---|
| Airport | Islamabad International Airport (OPIS) |
| Time | Latitude | Longitude | Altitude | Speed | Heading |
|---|---|---|---|---|---|
| 2026-05-03 20:15 | 35.51819 | 74.31854 | 36277 ft | 365 kts | 240° |
| 2026-05-03 20:15 | 35.50649 | 74.29131 | 36505 ft | 367 kts | 240° |
| 2026-05-03 20:15 | 35.49454 | 74.26356 | 36712 ft | 368 kts | 240° |
| 2026-05-03 20:15 | 35.48257 | 74.23575 | 36934 ft | 369 kts | 240° |
| 2026-05-03 20:16 | 35.47051 | 74.20768 | 37030 ft | 373 kts | 241° |
| 2026-05-03 20:16 | 35.44528 | 74.15101 | 37063 ft | 385 kts | 240° |
| 2026-05-03 20:17 | 35.41918 | 74.09246 | 37049 ft | 397 kts | 235° |
| 2026-05-03 20:17 | 35.38253 | 74.04083 | 37043 ft | 406 kts | 225° |
| 2026-05-03 20:18 | 35.34180 | 73.99157 | 37055 ft | 416 kts | 224° |
| 2026-05-03 20:18 | 35.30057 | 73.94178 | 37059 ft | 420 kts | 224° |
| 2026-05-03 20:19 | 35.25904 | 73.89146 | 37054 ft | 420 kts | 224° |
| 2026-05-03 20:19 | 35.21749 | 73.84117 | 37056 ft | 421 kts | 225° |
| 2026-05-03 20:20 | 35.17585 | 73.79082 | 37059 ft | 421 kts | 225° |
| 2026-05-03 20:20 | 35.13410 | 73.74047 | 37094 ft | 421 kts | 224° |
| 2026-05-03 20:21 | 35.09239 | 73.69028 | 37098 ft | 421 kts | 224° |
| 2026-05-03 20:21 | 35.05075 | 73.64008 | 37092 ft | 420 kts | 224° |
| 2026-05-03 20:22 | 35.00919 | 73.59001 | 37102 ft | 420 kts | 225° |
| 2026-05-03 20:22 | 34.96750 | 73.54013 | 37098 ft | 420 kts | 224° |
| 2026-05-03 20:23 | 34.92604 | 73.49064 | 37070 ft | 419 kts | 224° |
| 2026-05-03 20:23 | 34.88438 | 73.44086 | 37061 ft | 420 kts | 224° |
| 2026-05-03 20:24 | 34.84268 | 73.39109 | 37046 ft | 420 kts | 224° |
| 2026-05-03 20:24 | 34.80091 | 73.34151 | 37019 ft | 420 kts | 221° |
| 2026-05-03 20:24 | 34.77722 | 73.32101 | 36530 ft | 421 kts | 207° |
| 2026-05-03 20:25 | 34.74973 | 73.30834 | 35515 ft | 423 kts | 198° |
| 2026-05-03 20:25 | 34.72168 | 73.29772 | 34461 ft | 418 kts | 196° |
| 2026-05-03 20:25 | 34.69416 | 73.28760 | 33611 ft | 409 kts | 196° |
| 2026-05-03 20:25 | 34.66721 | 73.27768 | 32728 ft | 400 kts | 197° |
| 2026-05-03 20:26 | 34.64079 | 73.26786 | 31903 ft | 398 kts | 197° |
| 2026-05-03 20:26 | 34.61412 | 73.25782 | 31041 ft | 403 kts | 198° |
| 2026-05-03 20:26 | 34.58716 | 73.24756 | 30148 ft | 409 kts | 198° |
| 2026-05-03 20:26 | 34.55983 | 73.23708 | 29061 ft | 414 kts | 198° |
| 2026-05-03 20:27 | 34.53217 | 73.22649 | 27983 ft | 419 kts | 198° |
| 2026-05-03 20:27 | 34.50418 | 73.21583 | 26839 ft | 423 kts | 198° |
| 2026-05-03 20:27 | 34.47600 | 73.20514 | 25713 ft | 424 kts | 198° |
| 2026-05-03 20:27 | 34.44799 | 73.19453 | 24645 ft | 420 kts | 198° |
| 2026-05-03 20:28 | 34.42025 | 73.18406 | 23612 ft | 415 kts | 199° |
| 2026-05-03 20:28 | 34.39263 | 73.17365 | 22470 ft | 419 kts | 199° |
| 2026-05-03 20:28 | 34.36458 | 73.16305 | 21307 ft | 426 kts | 199° |
| 2026-05-03 20:28 | 34.33604 | 73.15224 | 20217 ft | 432 kts | 199° |
| 2026-05-03 20:29 | 34.30747 | 73.14143 | 19519 ft | 428 kts | 199° |
| 2026-05-03 20:29 | 34.27962 | 73.13092 | 18980 ft | 421 kts | 199° |
| 2026-05-03 20:29 | 34.25190 | 73.12050 | 18443 ft | 415 kts | 199° |
| 2026-05-03 20:29 | 34.22445 | 73.11021 | 17787 ft | 412 kts | 199° |
| 2026-05-03 20:30 | 34.19724 | 73.10000 | 17187 ft | 407 kts | 199° |
| 2026-05-03 20:30 | 34.17032 | 73.08989 | 16604 ft | 403 kts | 199° |
| 2026-05-03 20:30 | 34.14372 | 73.07989 | 16048 ft | 398 kts | 199° |
| 2026-05-03 20:30 | 34.11739 | 73.06995 | 15502 ft | 394 kts | 199° |
| 2026-05-03 20:31 | 34.09129 | 73.06010 | 14954 ft | 391 kts | 199° |
| 2026-05-03 20:31 | 34.06544 | 73.05038 | 14400 ft | 387 kts | 199° |
| 2026-05-03 20:31 | 34.03976 | 73.04074 | 13820 ft | 385 kts | 198° |
| 2026-05-03 20:31 | 34.01420 | 73.03116 | 13199 ft | 383 kts | 200° |
| 2026-05-03 20:32 | 33.98880 | 73.02165 | 12569 ft | 380 kts | 199° |
| 2026-05-03 20:32 | 33.96398 | 73.01239 | 11947 ft | 377 kts | 199° |
| 2026-05-03 20:32 | 33.93897 | 73.00307 | 11296 ft | 375 kts | 198° |
| 2026-05-03 20:32 | 33.91438 | 72.99391 | 11024 ft | 362 kts | 199° |
| 2026-05-03 20:33 | 33.89081 | 72.98511 | 10897 ft | 346 kts | 199° |
| 2026-05-03 20:33 | 33.86831 | 72.97670 | 10775 ft | 331 kts | 199° |
| 2026-05-03 20:33 | 33.84674 | 72.96862 | 10650 ft | 318 kts | 198° |
| 2026-05-03 20:33 | 33.82598 | 72.96083 | 10531 ft | 307 kts | 198° |
| 2026-05-03 20:34 | 33.80584 | 72.95331 | 10313 ft | 299 kts | 198° |
| 2026-05-03 20:34 | 33.78615 | 72.94601 | 10235 ft | 295 kts | 198° |
| 2026-05-03 20:34 | 33.76652 | 72.93871 | 10140 ft | 295 kts | 199° |
| 2026-05-03 20:34 | 33.74698 | 72.93143 | 9999 ft | 294 kts | 198° |
| 2026-05-03 20:35 | 33.72753 | 72.92417 | 9550 ft | 297 kts | 199° |
| 2026-05-03 20:35 | 33.70786 | 72.91683 | 9160 ft | 294 kts | 198° |
| 2026-05-03 20:35 | 33.68820 | 72.90953 | 8709 ft | 294 kts | 198° |
| 2026-05-03 20:35 | 33.66874 | 72.90231 | 8308 ft | 292 kts | 198° |
| 2026-05-03 20:36 | 33.64936 | 72.89512 | 7915 ft | 290 kts | 198° |
| 2026-05-03 20:36 | 33.63008 | 72.88797 | 7478 ft | 290 kts | 198° |
| 2026-05-03 20:36 | 33.61736 | 72.88326 | 7199 ft | 289 kts | 198° |
| 2026-05-03 20:36 | 33.59853 | 72.87628 | 6798 ft | 276 kts | 198° |
| 2026-05-03 20:37 | 33.58058 | 72.86962 | 6429 ft | 264 kts | 197° |
| 2026-05-03 20:37 | 33.56291 | 72.86665 | 6062 ft | 252 kts | 176° |
| 2026-05-03 20:37 | 33.54644 | 72.87112 | 5838 ft | 235 kts | 156° |
| 2026-05-03 20:37 | 33.53275 | 72.88142 | 5685 ft | 231 kts | 137° |
| 2026-05-03 20:38 | 33.52266 | 72.89619 | 5524 ft | 227 kts | 122° |
| 2026-05-03 20:38 | 33.51415 | 72.91218 | 5367 ft | 227 kts | 122° |
| 2026-05-03 20:38 | 33.50576 | 72.92779 | 5208 ft | 225 kts | 122° |
| 2026-05-03 20:38 | 33.49730 | 72.94347 | 5047 ft | 223 kts | 122° |
| 2026-05-03 20:39 | 33.48897 | 72.95905 | 4881 ft | 221 kts | 121° |
| 2026-05-03 20:39 | 33.48071 | 72.97442 | 4715 ft | 218 kts | 122° |
| 2026-05-03 20:39 | 33.47255 | 72.98956 | 4538 ft | 215 kts | 122° |
| 2026-05-03 20:39 | 33.46443 | 73.00454 | 4374 ft | 214 kts | 122° |
| 2026-05-03 20:40 | 33.45632 | 73.01944 | 4204 ft | 213 kts | 122° |
| 2026-05-03 20:40 | 33.44893 | 73.03474 | 4026 ft | 211 kts | 107° |
| 2026-05-03 20:40 | 33.44852 | 73.05203 | 3858 ft | 211 kts | 72° |
| 2026-05-03 20:40 | 33.45678 | 73.06630 | 3754 ft | 214 kts | 38° |
| 2026-05-03 20:41 | 33.47014 | 73.07338 | 3704 ft | 207 kts | 14° |
| 2026-05-03 20:41 | 33.48441 | 73.07395 | 3725 ft | 202 kts | 353° |
| 2026-05-03 20:41 | 33.49727 | 73.06872 | 3720 ft | 190 kts | 333° |
| 2026-05-03 20:41 | 33.50728 | 73.05923 | 3698 ft | 178 kts | 313° |
| 2026-05-03 20:42 | 33.51378 | 73.04746 | 3694 ft | 169 kts | 295° |
| 2026-05-03 20:42 | 33.51714 | 73.03408 | 3710 ft | 167 kts | 281° |
| 2026-05-03 20:42 | 33.51930 | 73.02052 | 3707 ft | 164 kts | 281° |
| 2026-05-03 20:42 | 33.52144 | 73.00702 | 3707 ft | 166 kts | 281° |
| 2026-05-03 20:43 | 33.52360 | 72.99343 | 3711 ft | 166 kts | 281° |
| 2026-05-03 20:43 | 33.52573 | 72.97999 | 3716 ft | 161 kts | 282° |
| 2026-05-03 20:43 | 33.52781 | 72.96684 | 3646 ft | 160 kts | 282° |
| 2026-05-03 20:43 | 33.52989 | 72.95366 | 3476 ft | 161 kts | 281° |
| 2026-05-03 20:44 | 33.53196 | 72.94057 | 3299 ft | 159 kts | 282° |
| 2026-05-03 20:44 | 33.53399 | 72.92770 | 3092 ft | 157 kts | 282° |
| 2026-05-03 20:44 | 33.53601 | 72.91490 | 2880 ft | 155 kts | 282° |
| 2026-05-03 20:44 | 33.53798 | 72.90238 | 2690 ft | 154 kts | 283° |
| 2026-05-03 20:45 | 33.53994 | 72.88993 | 2497 ft | 151 kts | 283° |
| 2026-05-03 20:45 | 33.54189 | 72.87759 | 2320 ft | 150 kts | 284° |
| 2026-05-03 20:45 | 33.54380 | 72.86545 | 2138 ft | 147 kts | 281° |
| 2026-05-03 20:45 | 33.54566 | 72.85355 | 1947 ft | 144 kts | 280° |
| 2026-05-03 20:46 | 33.54751 | 72.84183 | 1772 ft | 141 kts | 279° |
| 2026-05-03 20:46 | 33.54896 | 72.83241 | 1766 ft | 76 kts | 281° |
| 2026-05-03 20:46 | 33.54968 | 72.82783 | 1761 ft | 51 kts | 281° |
| 2026-05-03 20:46 | 33.55016 | 72.82482 | 1759 ft | 18 kts | 289° |
| 2026-05-03 20:47 | 33.55119 | 72.82461 | 1767 ft | 14 kts | 10° |
| 2026-05-03 20:47 | 33.55199 | 72.82498 | 1768 ft | 11 kts | 57° |
| 2026-05-03 20:47 | 33.55195 | 72.82579 | 1770 ft | 9 kts | 101° |
| 2026-05-03 20:47 | 33.55184 | 72.82649 | 1768 ft | 8 kts | 99° |
| 2026-05-03 20:48 | 33.55176 | 72.82708 | 1769 ft | 6 kts | 100° |
| 2026-05-03 20:48 | 33.55168 | 72.82755 | 1771 ft | 5 kts | 101° |
| 2026-05-03 20:48 | 33.55163 | 72.82790 | 1770 ft | 4 kts | 101° |
| 2026-05-03 20:48 | 33.55153 | 72.82849 | 1771 ft | 11 kts | 100° |
| 2026-05-03 20:49 | 33.55160 | 72.82948 | 1770 ft | 13 kts | 63° |
| 2026-05-03 20:49 | 33.55199 | 72.83017 | 1772 ft | 7 kts | 55° |
| 2026-05-03 20:49 | 33.55226 | 72.83034 | 1769 ft | 2 kts | 342° |
| 2026-05-03 20:49 | 33.55236 | 72.83022 | 1770 ft | 2 kts | 324° |
| 2026-05-03 20:50 | 33.55249 | 72.83012 | 1771 ft | 3 kts | 326° |
| 2026-05-03 20:50 | 33.55268 | 72.82996 | 1772 ft | 3 kts | 326° |
| 2026-05-03 20:50 | 33.55293 | 72.82976 | 1771 ft | 0 kts | 326° |